sensor_id;sensor_type;location;lat;lon;timestamp;P1;durP1;ratioP1;P2;durP2;ratioP2
7142;SDS011;3613;48.902;9.204;2023-02-26T00:00:28;4.23;;;2.90;;
7142;SDS011;3613;48.902;9.204;2023-02-26T00:02:54;5.37;;;2.80;;
7142;SDS011;3613;48.902;9.204;2023-02-26T00:05:22;4.43;;;3.35;;
7142;SDS011;3613;48.902;9.204;2023-02-26T00:07:48;3.87;;;3.07;;
7142;SDS011;3613;48.902;9.204;2023-02-26T00:10:15;4.28;;;3.20;;
7142;SDS011;3613;48.902;9.204;2023-02-26T00:12:42;4.27;;;2.83;;
7142;SDS011;3613;48.902;9.204;2023-02-26T00:15:09;4.35;;;2.80;;
7142;SDS011;3613;48.902;9.204;2023-02-26T00:20:21;3.75;;;2.67;;
7142;SDS011;3613;48.902;9.204;2023-02-26T00:22:49;3.97;;;2.58;;
7142;SDS011;3613;48.902;9.204;2023-02-26T00:25:15;2.72;;;2.20;;
7142;SDS011;3613;48.902;9.204;2023-02-26T00:27:46;3.42;;;2.47;;
7142;SDS011;3613;48.902;9.204;2023-02-26T00:30:12;3.97;;;2.50;;
7142;SDS011;3613;48.902;9.204;2023-02-26T00:32:38;3.63;;;2.67;;
7142;SDS011;3613;48.902;9.204;2023-02-26T00:35:12;3.45;;;2.70;;
7142;SDS011;3613;48.902;9.204;2023-02-26T00:40:21;4.80;;;2.90;;
7142;SDS011;3613;48.902;9.204;2023-02-26T00:42:58;3.38;;;2.95;;
7142;SDS011;3613;48.902;9.204;2023-02-26T00:45:26;5.83;;;3.00;;
7142;SDS011;3613;48.902;9.204;2023-02-26T00:50:31;5.80;;;3.00;;
7142;SDS011;3613;48.902;9.204;2023-02-26T00:55:31;3.67;;;2.90;;
7142;SDS011;3613;48.902;9.204;2023-02-26T00:57:59;3.57;;;2.93;;
7142;SDS011;3613;48.902;9.204;2023-02-26T01:00:27;4.25;;;2.40;;
7142;SDS011;3613;48.902;9.204;2023-02-26T01:02:52;3.53;;;2.77;;
7142;SDS011;3613;48.902;9.204;2023-02-26T01:05:21;3.78;;;2.78;;
7142;SDS011;3613;48.902;9.204;2023-02-26T01:10:34;4.55;;;3.08;;
7142;SDS011;3613;48.902;9.204;2023-02-26T01:13:00;5.82;;;3.30;;
7142;SDS011;3613;48.902;9.204;2023-02-26T01:15:25;4.43;;;3.47;;
7142;SDS011;3613;48.902;9.204;2023-02-26T01:20:28;4.35;;;3.10;;
7142;SDS011;3613;48.902;9.204;2023-02-26T01:23:00;4.45;;;2.95;;
7142;SDS011;3613;48.902;9.204;2023-02-26T01:25:39;5.18;;;2.80;;
7142;SDS011;3613;48.902;9.204;2023-02-26T01:28:13;2.90;;;2.60;;
7142;SDS011;3613;48.902;9.204;2023-02-26T01:30:39;3.65;;;2.53;;
7142;SDS011;3613;48.902;9.204;2023-02-26T01:33:09;3.78;;;3.30;;
7142;SDS011;3613;48.902;9.204;2023-02-26T01:35:54;4.53;;;3.38;;
7142;SDS011;3613;48.902;9.204;2023-02-26T01:41:38;3.60;;;2.60;;
7142;SDS011;3613;48.902;9.204;2023-02-26T01:44:10;4.55;;;2.45;;
7142;SDS011;3613;48.902;9.204;2023-02-26T01:47:01;4.18;;;2.63;;
7142;SDS011;3613;48.902;9.204;2023-02-26T01:49:40;3.47;;;2.72;;
7142;SDS011;3613;48.902;9.204;2023-02-26T01:52:56;4.60;;;2.95;;
7142;SDS011;3613;48.902;9.204;2023-02-26T01:55:10;3.35;;;2.70;;
7142;SDS011;3613;48.902;9.204;2023-02-26T01:57:39;4.28;;;3.13;;
7142;SDS011;3613;48.902;9.204;2023-02-26T02:00:05;4.80;;;3.03;;
7142;SDS011;3613;48.902;9.204;2023-02-26T02:02:34;4.40;;;2.70;;
7142;SDS011;3613;48.902;9.204;2023-02-26T02:05:08;6.97;;;3.10;;
7142;SDS011;3613;48.902;9.204;2023-02-26T02:07:40;4.13;;;2.90;;
7142;SDS011;3613;48.902;9.204;2023-02-26T02:10:06;5.23;;;2.90;;
7142;SDS011;3613;48.902;9.204;2023-02-26T02:18:12;2.72;;;2.50;;
7142;SDS011;3613;48.902;9.204;2023-02-26T02:23:56;3.35;;;3.03;;
7142;SDS011;3613;48.902;9.204;2023-02-26T02:37:45;3.15;;;2.85;;
7142;SDS011;3613;48.902;9.204;2023-02-26T02:40:22;3.40;;;2.60;;
7142;SDS011;3613;48.902;9.204;2023-02-26T02:42:57;4.43;;;3.10;;
7142;SDS011;3613;48.902;9.204;2023-02-26T02:45:40;5.07;;;3.40;;
7142;SDS011;3613;48.902;9.204;2023-02-26T02:48:33;5.30;;;3.53;;
7142;SDS011;3613;48.902;9.204;2023-02-26T02:51:14;5.75;;;2.90;;
7142;SDS011;3613;48.902;9.204;2023-02-26T02:53:56;3.35;;;2.70;;
7142;SDS011;3613;48.902;9.204;2023-02-26T02:56:44;3.42;;;2.92;;
7142;SDS011;3613;48.902;9.204;2023-02-26T03:02:03;3.90;;;3.22;;
7142;SDS011;3613;48.902;9.204;2023-02-26T03:04:34;3.20;;;2.80;;
7142;SDS011;3613;48.902;9.204;2023-02-26T03:07:01;3.83;;;3.08;;
7142;SDS011;3613;48.902;9.204;2023-02-26T03:09:26;4.23;;;3.20;;
7142;SDS011;3613;48.902;9.204;2023-02-26T03:11:52;7.47;;;3.40;;
7142;SDS011;3613;48.902;9.204;2023-02-26T03:14:17;3.57;;;2.90;;
7142;SDS011;3613;48.902;9.204;2023-02-26T03:19:23;4.72;;;3.47;;
7142;SDS011;3613;48.902;9.204;2023-02-26T03:22:10;3.60;;;2.92;;
7142;SDS011;3613;48.902;9.204;2023-02-26T03:24:42;3.70;;;2.75;;
7142;SDS011;3613;48.902;9.204;2023-02-26T03:27:25;5.13;;;2.75;;
7142;SDS011;3613;48.902;9.204;2023-02-26T03:30:02;6.32;;;3.42;;
7142;SDS011;3613;48.902;9.204;2023-02-26T03:41:08;4.97;;;2.70;;
7142;SDS011;3613;48.902;9.204;2023-02-26T03:43:43;4.85;;;2.92;;
7142;SDS011;3613;48.902;9.204;2023-02-26T03:46:18;3.72;;;3.00;;
7142;SDS011;3613;48.902;9.204;2023-02-26T03:48:49;4.93;;;3.20;;
7142;SDS011;3613;48.902;9.204;2023-02-26T03:51:22;6.40;;;2.97;;
7142;SDS011;3613;48.902;9.204;2023-02-26T03:53:55;3.33;;;3.03;;
7142;SDS011;3613;48.902;9.204;2023-02-26T03:56:28;6.07;;;3.35;;
7142;SDS011;3613;48.902;9.204;2023-02-26T03:59:01;4.38;;;3.15;;
7142;SDS011;3613;48.902;9.204;2023-02-26T04:01:33;4.20;;;2.90;;
7142;SDS011;3613;48.902;9.204;2023-02-26T04:07:06;5.63;;;3.10;;
7142;SDS011;3613;48.902;9.204;2023-02-26T04:09:34;5.78;;;2.85;;
7142;SDS011;3613;48.902;9.204;2023-02-26T04:12:00;4.77;;;3.07;;
7142;SDS011;3613;48.902;9.204;2023-02-26T04:14:28;5.67;;;3.40;;
7142;SDS011;3613;48.902;9.204;2023-02-26T04:16:53;5.03;;;3.13;;
7142;SDS011;3613;48.902;9.204;2023-02-26T04:19:21;6.50;;;3.42;;
7142;SDS011;3613;48.902;9.204;2023-02-26T04:21:47;5.13;;;3.17;;
7142;SDS011;3613;48.902;9.204;2023-02-26T04:24:13;7.30;;;3.10;;
7142;SDS011;3613;48.902;9.204;2023-02-26T04:26:38;6.00;;;2.97;;
7142;SDS011;3613;48.902;9.204;2023-02-26T04:29:06;4.20;;;3.20;;
7142;SDS011;3613;48.902;9.204;2023-02-26T04:31:31;6.50;;;3.37;;
7142;SDS011;3613;48.902;9.204;2023-02-26T04:34:00;8.88;;;3.38;;
7142;SDS011;3613;48.902;9.204;2023-02-26T04:36:26;7.07;;;3.63;;
7142;SDS011;3613;48.902;9.204;2023-02-26T04:38:54;8.93;;;3.55;;
7142;SDS011;3613;48.902;9.204;2023-02-26T04:41:20;4.07;;;3.00;;
7142;SDS011;3613;48.902;9.204;2023-02-26T04:43:48;6.47;;;3.10;;
7142;SDS011;3613;48.902;9.204;2023-02-26T04:46:14;4.50;;;3.20;;
7142;SDS011;3613;48.902;9.204;2023-02-26T04:48:39;4.97;;;3.10;;
7142;SDS011;3613;48.902;9.204;2023-02-26T04:51:05;3.60;;;2.70;;
7142;SDS011;3613;48.902;9.204;2023-02-26T04:53:31;4.60;;;2.70;;
7142;SDS011;3613;48.902;9.204;2023-02-26T04:55:56;4.10;;;3.13;;
7142;SDS011;3613;48.902;9.204;2023-02-26T04:58:22;6.03;;;3.23;;
7142;SDS011;3613;48.902;9.204;2023-02-26T05:00:48;4.47;;;2.80;;
7142;SDS011;3613;48.902;9.204;2023-02-26T05:03:15;4.65;;;3.25;;
7142;SDS011;3613;48.902;9.204;2023-02-26T05:05:40;4.17;;;3.50;;
7142;SDS011;3613;48.902;9.204;2023-02-26T05:08:06;7.20;;;3.53;;
7142;SDS011;3613;48.902;9.204;2023-02-26T05:10:37;4.72;;;3.10;;
7142;SDS011;3613;48.902;9.204;2023-02-26T05:13:02;5.80;;;3.10;;
7142;SDS011;3613;48.902;9.204;2023-02-26T05:15:28;5.23;;;3.00;;
7142;SDS011;3613;48.902;9.204;2023-02-26T05:17:56;7.22;;;3.15;;
7142;SDS011;3613;48.902;9.204;2023-02-26T05:20:22;8.40;;;3.73;;
7142;SDS011;3613;48.902;9.204;2023-02-26T05:22:50;4.05;;;3.47;;
7142;SDS011;3613;48.902;9.204;2023-02-26T05:25:18;7.63;;;3.53;;
7142;SDS011;3613;48.902;9.204;2023-02-26T05:27:44;5.27;;;3.33;;
7142;SDS011;3613;48.902;9.204;2023-02-26T05:30:14;4.32;;;3.60;;
7142;SDS011;3613;48.902;9.204;2023-02-26T05:32:40;6.60;;;3.30;;
7142;SDS011;3613;48.902;9.204;2023-02-26T05:35:07;4.35;;;2.90;;
7142;SDS011;3613;48.902;9.204;2023-02-26T05:37:35;6.43;;;3.08;;
7142;SDS011;3613;48.902;9.204;2023-02-26T05:40:02;4.15;;;3.20;;
7142;SDS011;3613;48.902;9.204;2023-02-26T05:42:28;4.47;;;3.10;;
7142;SDS011;3613;48.902;9.204;2023-02-26T05:44:54;6.73;;;4.40;;
7142;SDS011;3613;48.902;9.204;2023-02-26T05:47:19;7.40;;;4.60;;
7142;SDS011;3613;48.902;9.204;2023-02-26T05:49:45;5.47;;;3.57;;
7142;SDS011;3613;48.902;9.204;2023-02-26T05:52:11;6.60;;;3.73;;
7142;SDS011;3613;48.902;9.204;2023-02-26T05:54:36;6.43;;;4.03;;
7142;SDS011;3613;48.902;9.204;2023-02-26T05:57:02;4.47;;;3.53;;
7142;SDS011;3613;48.902;9.204;2023-02-26T05:59:30;4.93;;;3.33;;
7142;SDS011;3613;48.902;9.204;2023-02-26T06:01:58;7.68;;;4.43;;
7142;SDS011;3613;48.902;9.204;2023-02-26T06:04:24;6.95;;;3.70;;
7142;SDS011;3613;48.902;9.204;2023-02-26T06:06:50;5.37;;;4.13;;
7142;SDS011;3613;48.902;9.204;2023-02-26T06:09:16;5.87;;;3.57;;
7142;SDS011;3613;48.902;9.204;2023-02-26T06:11:41;7.70;;;3.73;;
7142;SDS011;3613;48.902;9.204;2023-02-26T06:14:07;9.07;;;3.53;;
7142;SDS011;3613;48.902;9.204;2023-02-26T06:16:33;5.30;;;3.20;;
7142;SDS011;3613;48.902;9.204;2023-02-26T06:18:59;6.97;;;3.67;;
7142;SDS011;3613;48.902;9.204;2023-02-26T06:21:25;4.55;;;3.83;;
7142;SDS011;3613;48.902;9.204;2023-02-26T06:23:51;7.00;;;3.90;;
7142;SDS011;3613;48.902;9.204;2023-02-26T06:26:19;8.52;;;3.97;;
7142;SDS011;3613;48.902;9.204;2023-02-26T06:28:47;7.60;;;3.80;;
7142;SDS011;3613;48.902;9.204;2023-02-26T06:31:13;6.43;;;4.17;;
7142;SDS011;3613;48.902;9.204;2023-02-26T06:33:38;6.87;;;3.97;;
7142;SDS011;3613;48.902;9.204;2023-02-26T06:36:06;8.07;;;3.63;;
7142;SDS011;3613;48.902;9.204;2023-02-26T06:38:32;4.97;;;3.93;;
7142;SDS011;3613;48.902;9.204;2023-02-26T06:41:02;8.02;;;3.88;;
7142;SDS011;3613;48.902;9.204;2023-02-26T06:43:28;7.32;;;4.20;;
7142;SDS011;3613;48.902;9.204;2023-02-26T06:45:57;8.60;;;4.55;;
7142;SDS011;3613;48.902;9.204;2023-02-26T06:48:23;4.28;;;3.80;;
7142;SDS011;3613;48.902;9.204;2023-02-26T06:50:49;3.40;;;2.92;;
7142;SDS011;3613;48.902;9.204;2023-02-26T06:53:14;5.47;;;3.70;;
7142;SDS011;3613;48.902;9.204;2023-02-26T06:55:44;9.07;;;3.87;;
7142;SDS011;3613;48.902;9.204;2023-02-26T06:58:10;5.43;;;3.78;;
7142;SDS011;3613;48.902;9.204;2023-02-26T07:00:36;7.87;;;4.30;;
7142;SDS011;3613;48.902;9.204;2023-02-26T07:03:05;5.93;;;3.47;;
7142;SDS011;3613;48.902;9.204;2023-02-26T07:05:31;4.77;;;3.00;;
7142;SDS011;3613;48.902;9.204;2023-02-26T07:07:57;6.00;;;3.30;;
7142;SDS011;3613;48.902;9.204;2023-02-26T07:10:22;4.07;;;2.90;;
7142;SDS011;3613;48.902;9.204;2023-02-26T07:12:49;4.20;;;3.30;;
7142;SDS011;3613;48.902;9.204;2023-02-26T07:15:15;4.72;;;3.20;;
7142;SDS011;3613;48.902;9.204;2023-02-26T07:17:41;7.97;;;4.37;;
7142;SDS011;3613;48.902;9.204;2023-02-26T07:20:08;5.13;;;3.38;;
7142;SDS011;3613;48.902;9.204;2023-02-26T07:22:35;3.22;;;2.92;;
7142;SDS011;3613;48.902;9.204;2023-02-26T07:25:02;3.53;;;2.95;;
7142;SDS011;3613;48.902;9.204;2023-02-26T07:27:28;5.10;;;2.85;;
7142;SDS011;3613;48.902;9.204;2023-02-26T07:29:57;5.28;;;2.70;;
7142;SDS011;3613;48.902;9.204;2023-02-26T07:32:23;2.87;;;2.20;;
7142;SDS011;3613;48.902;9.204;2023-02-26T07:34:49;3.57;;;2.30;;
7142;SDS011;3613;48.902;9.204;2023-02-26T07:37:15;3.37;;;2.60;;
7142;SDS011;3613;48.902;9.204;2023-02-26T07:39:43;4.03;;;2.50;;
7142;SDS011;3613;48.902;9.204;2023-02-26T07:42:09;10.13;;;2.63;;
7142;SDS011;3613;48.902;9.204;2023-02-26T07:44:35;2.90;;;2.50;;
7142;SDS011;3613;48.902;9.204;2023-02-26T07:47:03;4.40;;;3.00;;
7142;SDS011;3613;48.902;9.204;2023-02-26T07:49:29;3.30;;;2.83;;
7142;SDS011;3613;48.902;9.204;2023-02-26T07:51:56;3.78;;;2.70;;
7142;SDS011;3613;48.902;9.204;2023-02-26T07:54:22;5.33;;;2.70;;
7142;SDS011;3613;48.902;9.204;2023-02-26T07:56:47;5.00;;;2.60;;
7142;SDS011;3613;48.902;9.204;2023-02-26T07:59:13;2.57;;;2.20;;
7142;SDS011;3613;48.902;9.204;2023-02-26T08:01:39;3.83;;;2.40;;
7142;SDS011;3613;48.902;9.204;2023-02-26T08:04:04;4.63;;;2.67;;
7142;SDS011;3613;48.902;9.204;2023-02-26T08:06:30;5.40;;;2.67;;
7142;SDS011;3613;48.902;9.204;2023-02-26T08:08:56;4.70;;;2.60;;
7142;SDS011;3613;48.902;9.204;2023-02-26T08:11:21;3.47;;;2.03;;
7142;SDS011;3613;48.902;9.204;2023-02-26T08:13:47;5.00;;;2.43;;
7142;SDS011;3613;48.902;9.204;2023-02-26T08:16:13;5.17;;;2.40;;
7142;SDS011;3613;48.902;9.204;2023-02-26T08:18:38;2.53;;;2.00;;
7142;SDS011;3613;48.902;9.204;2023-02-26T08:21:06;3.50;;;2.40;;
7142;SDS011;3613;48.902;9.204;2023-02-26T08:23:37;5.30;;;3.15;;
7142;SDS011;3613;48.902;9.204;2023-02-26T08:26:04;4.53;;;2.67;;
7142;SDS011;3613;48.902;9.204;2023-02-26T08:28:34;4.38;;;3.22;;
7142;SDS011;3613;48.902;9.204;2023-02-26T08:31:03;6.50;;;2.38;;
7142;SDS011;3613;48.902;9.204;2023-02-26T08:33:29;5.28;;;2.42;;
7142;SDS011;3613;48.902;9.204;2023-02-26T08:35:55;2.95;;;2.47;;
7142;SDS011;3613;48.902;9.204;2023-02-26T08:38:23;4.47;;;1.90;;
7142;SDS011;3613;48.902;9.204;2023-02-26T08:40:52;3.23;;;1.97;;
7142;SDS011;3613;48.902;9.204;2023-02-26T08:43:19;4.27;;;2.30;;
7142;SDS011;3613;48.902;9.204;2023-02-26T08:45:45;5.63;;;2.27;;
7142;SDS011;3613;48.902;9.204;2023-02-26T08:48:14;3.07;;;1.90;;
7142;SDS011;3613;48.902;9.204;2023-02-26T08:50:39;3.30;;;2.20;;
7142;SDS011;3613;48.902;9.204;2023-02-26T08:53:10;3.90;;;2.63;;
7142;SDS011;3613;48.902;9.204;2023-02-26T08:55:35;2.67;;;2.47;;
7142;SDS011;3613;48.902;9.204;2023-02-26T08:58:01;2.87;;;1.63;;
7142;SDS011;3613;48.902;9.204;2023-02-26T09:00:27;1.40;;;1.30;;
7142;SDS011;3613;48.902;9.204;2023-02-26T09:02:53;2.20;;;2.00;;
7142;SDS011;3613;48.902;9.204;2023-02-26T09:05:18;3.33;;;1.90;;
7142;SDS011;3613;48.902;9.204;2023-02-26T09:07:46;2.78;;;2.15;;
7142;SDS011;3613;48.902;9.204;2023-02-26T09:10:14;1.88;;;1.77;;
7142;SDS011;3613;48.902;9.204;2023-02-26T09:12:40;5.32;;;2.08;;
7142;SDS011;3613;48.902;9.204;2023-02-26T09:15:09;2.13;;;1.80;;
7142;SDS011;3613;48.902;9.204;2023-02-26T09:17:35;6.15;;;2.92;;
7142;SDS011;3613;48.902;9.204;2023-02-26T09:20:02;5.80;;;3.20;;
7142;SDS011;3613;48.902;9.204;2023-02-26T09:22:28;3.67;;;2.25;;
7142;SDS011;3613;48.902;9.204;2023-02-26T09:24:54;2.83;;;2.03;;
7142;SDS011;3613;48.902;9.204;2023-02-26T09:27:22;6.27;;;1.90;;
7142;SDS011;3613;48.902;9.204;2023-02-26T09:29:47;2.50;;;2.00;;
7142;SDS011;3613;48.902;9.204;2023-02-26T09:32:13;5.03;;;2.03;;
7142;SDS011;3613;48.902;9.204;2023-02-26T09:34:38;3.73;;;2.27;;
7142;SDS011;3613;48.902;9.204;2023-02-26T09:37:05;1.60;;;1.50;;
7142;SDS011;3613;48.902;9.204;2023-02-26T09:39:32;2.92;;;2.13;;
7142;SDS011;3613;48.902;9.204;2023-02-26T09:42:01;3.53;;;2.25;;
7142;SDS011;3613;48.902;9.204;2023-02-26T09:44:34;3.08;;;2.42;;
7142;SDS011;3613;48.902;9.204;2023-02-26T09:47:04;2.85;;;2.20;;
7142;SDS011;3613;48.902;9.204;2023-02-26T09:52:36;4.00;;;2.38;;
7142;SDS011;3613;48.902;9.204;2023-02-26T09:57:44;5.03;;;2.00;;
7142;SDS011;3613;48.902;9.204;2023-02-26T10:00:26;3.47;;;2.05;;
7142;SDS011;3613;48.902;9.204;2023-02-26T10:05:45;5.85;;;2.10;;
7142;SDS011;3613;48.902;9.204;2023-02-26T10:08:36;3.30;;;2.10;;
7142;SDS011;3613;48.902;9.204;2023-02-26T10:11:55;4.85;;;2.45;;
7142;SDS011;3613;48.902;9.204;2023-02-26T10:14:17;2.95;;;2.13;;
7142;SDS011;3613;48.902;9.204;2023-02-26T10:19:43;3.53;;;2.40;;
7142;SDS011;3613;48.902;9.204;2023-02-26T10:22:17;2.67;;;2.28;;
7142;SDS011;3613;48.902;9.204;2023-02-26T10:24:51;4.65;;;2.10;;
7142;SDS011;3613;48.902;9.204;2023-02-26T10:27:36;1.58;;;1.48;;
7142;SDS011;3613;48.902;9.204;2023-02-26T10:30:06;2.30;;;1.83;;
7142;SDS011;3613;48.902;9.204;2023-02-26T10:32:51;1.97;;;1.60;;
7142;SDS011;3613;48.902;9.204;2023-02-26T10:35:25;2.17;;;1.98;;
7142;SDS011;3613;48.902;9.204;2023-02-26T10:38:00;2.00;;;1.90;;
7142;SDS011;3613;48.902;9.204;2023-02-26T10:40:42;2.38;;;1.63;;
7142;SDS011;3613;48.902;9.204;2023-02-26T10:51:16;2.05;;;1.83;;
7142;SDS011;3613;48.902;9.204;2023-02-26T10:56:57;4.03;;;1.57;;
7142;SDS011;3613;48.902;9.204;2023-02-26T10:59:23;3.97;;;1.90;;
7142;SDS011;3613;48.902;9.204;2023-02-26T11:01:48;1.77;;;1.67;;
7142;SDS011;3613;48.902;9.204;2023-02-26T11:04:17;1.70;;;1.60;;
7142;SDS011;3613;48.902;9.204;2023-02-26T11:06:52;2.00;;;1.80;;
7142;SDS011;3613;48.902;9.204;2023-02-26T11:09:47;4.07;;;2.28;;
7142;SDS011;3613;48.902;9.204;2023-02-26T11:12:13;2.63;;;1.58;;
7142;SDS011;3613;48.902;9.204;2023-02-26T11:14:43;2.67;;;2.03;;
7142;SDS011;3613;48.902;9.204;2023-02-26T11:17:25;2.08;;;1.55;;
7142;SDS011;3613;48.902;9.204;2023-02-26T11:20:12;2.10;;;1.90;;
7142;SDS011;3613;48.902;9.204;2023-02-26T11:22:49;3.37;;;1.83;;
7142;SDS011;3613;48.902;9.204;2023-02-26T11:25:21;5.37;;;1.57;;
7142;SDS011;3613;48.902;9.204;2023-02-26T11:27:52;2.20;;;1.77;;
7142;SDS011;3613;48.902;9.204;2023-02-26T11:30:34;1.73;;;1.50;;
7142;SDS011;3613;48.902;9.204;2023-02-26T11:36:10;1.63;;;1.30;;
7142;SDS011;3613;48.902;9.204;2023-02-26T11:38:39;1.47;;;1.13;;
7142;SDS011;3613;48.902;9.204;2023-02-26T11:41:08;1.43;;;1.33;;
7142;SDS011;3613;48.902;9.204;2023-02-26T11:43:39;1.27;;;1.17;;
7142;SDS011;3613;48.902;9.204;2023-02-26T11:46:07;2.07;;;1.50;;
7142;SDS011;3613;48.902;9.204;2023-02-26T11:51:21;4.33;;;1.70;;
7142;SDS011;3613;48.902;9.204;2023-02-26T11:53:52;1.57;;;1.47;;
7142;SDS011;3613;48.902;9.204;2023-02-26T11:56:40;1.47;;;1.37;;
7142;SDS011;3613;48.902;9.204;2023-02-26T12:01:47;3.40;;;1.70;;
7142;SDS011;3613;48.902;9.204;2023-02-26T12:04:17;1.90;;;1.30;;
7142;SDS011;3613;48.902;9.204;2023-02-26T12:06:48;1.95;;;1.70;;
7142;SDS011;3613;48.902;9.204;2023-02-26T12:09:16;2.00;;;1.80;;
7142;SDS011;3613;48.902;9.204;2023-02-26T12:22:41;1.77;;;1.30;;
7142;SDS011;3613;48.902;9.204;2023-02-26T12:33:52;1.67;;;1.33;;
7142;SDS011;3613;48.902;9.204;2023-02-26T12:39:08;1.23;;;1.20;;
7142;SDS011;3613;48.902;9.204;2023-02-26T12:52:54;3.70;;;1.47;;
7142;SDS011;3613;48.902;9.204;2023-02-26T12:55:28;1.40;;;1.30;;
7142;SDS011;3613;48.902;9.204;2023-02-26T13:06:32;1.40;;;1.30;;
7142;SDS011;3613;48.902;9.204;2023-02-26T13:09:03;1.70;;;1.10;;
7142;SDS011;3613;48.902;9.204;2023-02-26T13:24:56;2.10;;;1.60;;
7142;SDS011;3613;48.902;9.204;2023-02-26T13:27:33;1.63;;;1.50;;
7142;SDS011;3613;48.902;9.204;2023-02-26T13:32:50;1.37;;;1.27;;
7142;SDS011;3613;48.902;9.204;2023-02-26T13:35:24;2.17;;;1.60;;
7142;SDS011;3613;48.902;9.204;2023-02-26T13:38:01;1.40;;;1.30;;
7142;SDS011;3613;48.902;9.204;2023-02-26T13:40:51;1.70;;;1.37;;
7142;SDS011;3613;48.902;9.204;2023-02-26T13:46:11;1.40;;;1.30;;
7142;SDS011;3613;48.902;9.204;2023-02-26T13:49:01;1.60;;;1.40;;
7142;SDS011;3613;48.902;9.204;2023-02-26T13:51:40;1.70;;;1.60;;
7142;SDS011;3613;48.902;9.204;2023-02-26T14:01:52;1.00;;;1.00;;
7142;SDS011;3613;48.902;9.204;2023-02-26T14:04:25;1.10;;;1.10;;
7142;SDS011;3613;48.902;9.204;2023-02-26T14:07:05;1.27;;;1.00;;
7142;SDS011;3613;48.902;9.204;2023-02-26T14:09:46;1.30;;;1.20;;
7142;SDS011;3613;48.902;9.204;2023-02-26T14:12:36;1.10;;;1.10;;
7142;SDS011;3613;48.902;9.204;2023-02-26T14:17:40;1.13;;;1.10;;
7142;SDS011;3613;48.902;9.204;2023-02-26T14:20:20;0.90;;;0.90;;
7142;SDS011;3613;48.902;9.204;2023-02-26T14:22:54;1.00;;;1.00;;
7142;SDS011;3613;48.902;9.204;2023-02-26T14:27:49;2.40;;;1.20;;
7142;SDS011;3613;48.902;9.204;2023-02-26T14:30:24;1.10;;;1.00;;
7142;SDS011;3613;48.902;9.204;2023-02-26T14:35:42;2.33;;;1.10;;
7142;SDS011;3613;48.902;9.204;2023-02-26T14:40:54;1.73;;;1.40;;
7142;SDS011;3613;48.902;9.204;2023-02-26T14:43:37;1.47;;;1.10;;
7142;SDS011;3613;48.902;9.204;2023-02-26T14:46:08;0.80;;;0.80;;
7142;SDS011;3613;48.902;9.204;2023-02-26T14:48:35;2.97;;;1.23;;
7142;SDS011;3613;48.902;9.204;2023-02-26T14:51:22;4.57;;;1.73;;
7142;SDS011;3613;48.902;9.204;2023-02-26T14:54:00;1.97;;;1.20;;
7142;SDS011;3613;48.902;9.204;2023-02-26T15:02:48;1.73;;;1.43;;
7142;SDS011;3613;48.902;9.204;2023-02-26T15:16:22;1.50;;;1.40;;
7142;SDS011;3613;48.902;9.204;2023-02-26T15:19:07;1.83;;;1.40;;
7142;SDS011;3613;48.902;9.204;2023-02-26T15:21:46;2.03;;;1.60;;
7142;SDS011;3613;48.902;9.204;2023-02-26T15:24:14;1.67;;;1.40;;
7142;SDS011;3613;48.902;9.204;2023-02-26T15:26:48;1.90;;;1.30;;
7142;SDS011;3613;48.902;9.204;2023-02-26T15:29:17;1.47;;;1.33;;
7142;SDS011;3613;48.902;9.204;2023-02-26T15:31:52;1.30;;;1.20;;
7142;SDS011;3613;48.902;9.204;2023-02-26T15:34:20;1.33;;;1.23;;
7142;SDS011;3613;48.902;9.204;2023-02-26T15:36:48;1.60;;;1.47;;
7142;SDS011;3613;48.902;9.204;2023-02-26T15:39:16;1.40;;;1.30;;
7142;SDS011;3613;48.902;9.204;2023-02-26T15:41:42;1.57;;;1.47;;
7142;SDS011;3613;48.902;9.204;2023-02-26T15:44:15;1.13;;;1.10;;
7142;SDS011;3613;48.902;9.204;2023-02-26T15:46:49;1.33;;;1.23;;
7142;SDS011;3613;48.902;9.204;2023-02-26T15:49:26;1.33;;;1.23;;
7142;SDS011;3613;48.902;9.204;2023-02-26T15:52:03;1.50;;;1.40;;
7142;SDS011;3613;48.902;9.204;2023-02-26T15:54:34;1.57;;;1.17;;
7142;SDS011;3613;48.902;9.204;2023-02-26T15:57:07;1.33;;;1.23;;
7142;SDS011;3613;48.902;9.204;2023-02-26T15:59:36;2.40;;;1.50;;
7142;SDS011;3613;48.902;9.204;2023-02-26T16:02:14;1.63;;;1.20;;
7142;SDS011;3613;48.902;9.204;2023-02-26T16:04:45;1.88;;;1.20;;
7142;SDS011;3613;48.902;9.204;2023-02-26T16:07:13;2.35;;;1.60;;
7142;SDS011;3613;48.902;9.204;2023-02-26T16:09:44;1.10;;;1.10;;
7142;SDS011;3613;48.902;9.204;2023-02-26T16:12:21;2.70;;;1.40;;
7142;SDS011;3613;48.902;9.204;2023-02-26T16:15:00;1.52;;;1.42;;
7142;SDS011;3613;48.902;9.204;2023-02-26T16:17:32;1.75;;;1.48;;
7142;SDS011;3613;48.902;9.204;2023-02-26T16:20:07;1.00;;;1.00;;
7142;SDS011;3613;48.902;9.204;2023-02-26T16:23:03;1.70;;;1.20;;
7142;SDS011;3613;48.902;9.204;2023-02-26T16:25:37;1.48;;;1.38;;
7142;SDS011;3613;48.902;9.204;2023-02-26T16:28:09;3.20;;;1.17;;
7142;SDS011;3613;48.902;9.204;2023-02-26T16:30:41;1.15;;;1.10;;
7142;SDS011;3613;48.902;9.204;2023-02-26T16:33:10;1.52;;;1.10;;
7142;SDS011;3613;48.902;9.204;2023-02-26T16:35:41;1.00;;;1.00;;
7142;SDS011;3613;48.902;9.204;2023-02-26T16:40:46;1.80;;;1.35;;
7142;SDS011;3613;48.902;9.204;2023-02-26T16:46:07;2.17;;;1.70;;
7142;SDS011;3613;48.902;9.204;2023-02-26T16:51:18;1.45;;;1.35;;
7142;SDS011;3613;48.902;9.204;2023-02-26T16:56:33;1.40;;;1.30;;
7142;SDS011;3613;48.902;9.204;2023-02-26T17:04:27;3.38;;;2.33;;
7142;SDS011;3613;48.902;9.204;2023-02-26T17:06:58;2.67;;;2.13;;
7142;SDS011;3613;48.902;9.204;2023-02-26T17:12:13;1.98;;;1.60;;
7142;SDS011;3613;48.902;9.204;2023-02-26T17:14:46;1.90;;;1.77;;
7142;SDS011;3613;48.902;9.204;2023-02-26T17:17:16;1.80;;;1.70;;
7142;SDS011;3613;48.902;9.204;2023-02-26T17:19:44;2.75;;;1.77;;
7142;SDS011;3613;48.902;9.204;2023-02-26T17:22:14;1.63;;;1.52;;
7142;SDS011;3613;48.902;9.204;2023-02-26T17:24:42;2.60;;;2.08;;
7142;SDS011;3613;48.902;9.204;2023-02-26T17:27:15;1.30;;;1.20;;
7142;SDS011;3613;48.902;9.204;2023-02-26T17:29:47;1.50;;;1.40;;
7142;SDS011;3613;48.902;9.204;2023-02-26T17:32:16;1.92;;;1.50;;
7142;SDS011;3613;48.902;9.204;2023-02-26T17:34:44;2.30;;;1.83;;
7142;SDS011;3613;48.902;9.204;2023-02-26T17:37:10;1.30;;;1.20;;
7142;SDS011;3613;48.902;9.204;2023-02-26T17:39:40;1.55;;;1.23;;
7142;SDS011;3613;48.902;9.204;2023-02-26T17:42:10;2.65;;;1.50;;
7142;SDS011;3613;48.902;9.204;2023-02-26T17:44:37;2.03;;;1.92;;
7142;SDS011;3613;48.902;9.204;2023-02-26T17:47:02;4.50;;;1.70;;
7142;SDS011;3613;48.902;9.204;2023-02-26T17:49:30;2.00;;;1.87;;
7142;SDS011;3613;48.902;9.204;2023-02-26T17:51:56;3.13;;;2.00;;
7142;SDS011;3613;48.902;9.204;2023-02-26T17:54:21;5.10;;;2.10;;
7142;SDS011;3613;48.902;9.204;2023-02-26T17:56:47;1.77;;;1.50;;
7142;SDS011;3613;48.902;9.204;2023-02-26T17:59:14;3.08;;;1.60;;
7142;SDS011;3613;48.902;9.204;2023-02-26T18:01:39;1.80;;;1.70;;
7142;SDS011;3613;48.902;9.204;2023-02-26T18:04:10;2.63;;;2.05;;
7142;SDS011;3613;48.902;9.204;2023-02-26T18:06:37;1.50;;;1.33;;
7142;SDS011;3613;48.902;9.204;2023-02-26T18:09:05;1.80;;;1.67;;
7142;SDS011;3613;48.902;9.204;2023-02-26T18:11:31;2.00;;;1.50;;
7142;SDS011;3613;48.902;9.204;2023-02-26T18:13:57;2.75;;;1.90;;
7142;SDS011;3613;48.902;9.204;2023-02-26T18:16:27;1.70;;;1.60;;
7142;SDS011;3613;48.902;9.204;2023-02-26T18:18:57;1.10;;;1.10;;
7142;SDS011;3613;48.902;9.204;2023-02-26T18:21:24;2.45;;;1.70;;
7142;SDS011;3613;48.902;9.204;2023-02-26T18:23:50;1.95;;;1.75;;
7142;SDS011;3613;48.902;9.204;2023-02-26T18:26:20;2.10;;;1.52;;
7142;SDS011;3613;48.902;9.204;2023-02-26T18:28:48;2.78;;;1.98;;
7142;SDS011;3613;48.902;9.204;2023-02-26T18:31:15;1.65;;;1.50;;
7142;SDS011;3613;48.902;9.204;2023-02-26T18:33:41;2.28;;;1.50;;
7142;SDS011;3613;48.902;9.204;2023-02-26T18:36:10;1.75;;;1.60;;
7142;SDS011;3613;48.902;9.204;2023-02-26T18:38:41;2.88;;;1.27;;
7142;SDS011;3613;48.902;9.204;2023-02-26T18:41:06;1.73;;;1.57;;
7142;SDS011;3613;48.902;9.204;2023-02-26T18:43:34;2.05;;;1.85;;
7142;SDS011;3613;48.902;9.204;2023-02-26T18:46:00;2.03;;;1.60;;
7142;SDS011;3613;48.902;9.204;2023-02-26T18:48:28;1.40;;;1.30;;
7142;SDS011;3613;48.902;9.204;2023-02-26T18:50:54;1.40;;;1.30;;
7142;SDS011;3613;48.902;9.204;2023-02-26T18:53:23;1.88;;;1.60;;
7142;SDS011;3613;48.902;9.204;2023-02-26T18:55:52;1.95;;;1.70;;